sensor_id;sensor_type;location;lat;lon;timestamp;temperature;humidity
40538;DHT22;27925;41.874;12.526;2023-02-22T00:02:03;14.60;78.50
40538;DHT22;27925;41.874;12.526;2023-02-22T00:04:38;14.60;78.80
40538;DHT22;27925;41.874;12.526;2023-02-22T00:07:06;14.60;78.80
40538;DHT22;27925;41.874;12.526;2023-02-22T00:09:32;14.60;78.90
40538;DHT22;27925;41.874;12.526;2023-02-22T00:11:57;14.60;78.90
40538;DHT22;27925;41.874;12.526;2023-02-22T00:14:23;14.50;78.90
40538;DHT22;27925;41.874;12.526;2023-02-22T00:16:52;14.50;79.00
40538;DHT22;27925;41.874;12.526;2023-02-22T00:19:20;14.50;79.10
40538;DHT22;27925;41.874;12.526;2023-02-22T00:21:53;14.50;79.20
40538;DHT22;27925;41.874;12.526;2023-02-22T00:24:19;14.50;79.30
40538;DHT22;27925;41.874;12.526;2023-02-22T00:26:53;14.50;79.40
40538;DHT22;27925;41.874;12.526;2023-02-22T00:29:22;14.50;79.80
40538;DHT22;27925;41.874;12.526;2023-02-22T00:31:48;14.40;79.40
40538;DHT22;27925;41.874;12.526;2023-02-22T00:34:14;14.40;79.50
40538;DHT22;27925;41.874;12.526;2023-02-22T00:36:47;14.40;79.70
40538;DHT22;27925;41.874;12.526;2023-02-22T00:39:13;14.40;79.80
40538;DHT22;27925;41.874;12.526;2023-02-22T00:41:39;14.30;79.80
40538;DHT22;27925;41.874;12.526;2023-02-22T00:44:05;14.30;79.90
40538;DHT22;27925;41.874;12.526;2023-02-22T00:46:31;14.30;80.10
40538;DHT22;27925;41.874;12.526;2023-02-22T00:48:57;14.20;80.00
40538;DHT22;27925;41.874;12.526;2023-02-22T00:51:24;14.20;80.30
40538;DHT22;27925;41.874;12.526;2023-02-22T00:53:51;14.10;80.50
40538;DHT22;27925;41.874;12.526;2023-02-22T00:56:17;14.00;80.60
40538;DHT22;27925;41.874;12.526;2023-02-22T00:58:43;14.00;80.70
40538;DHT22;27925;41.874;12.526;2023-02-22T01:01:09;13.90;80.70
40538;DHT22;27925;41.874;12.526;2023-02-22T01:03:34;13.90;80.70
40538;DHT22;27925;41.874;12.526;2023-02-22T01:06:02;13.90;80.90
40538;DHT22;27925;41.874;12.526;2023-02-22T01:08:28;13.80;81.00
40538;DHT22;27925;41.874;12.526;2023-02-22T01:10:55;13.80;81.00
40538;DHT22;27925;41.874;12.526;2023-02-22T01:13:22;13.80;81.10
40538;DHT22;27925;41.874;12.526;2023-02-22T01:15:47;13.80;81.30
40538;DHT22;27925;41.874;12.526;2023-02-22T01:18:14;13.80;81.30
40538;DHT22;27925;41.874;12.526;2023-02-22T01:20:42;13.70;81.40
40538;DHT22;27925;41.874;12.526;2023-02-22T01:23:12;13.70;81.40
40538;DHT22;27925;41.874;12.526;2023-02-22T01:25:38;13.70;81.50
40538;DHT22;27925;41.874;12.526;2023-02-22T01:28:05;13.60;81.70
40538;DHT22;27925;41.874;12.526;2023-02-22T01:30:34;13.60;81.80
40538;DHT22;27925;41.874;12.526;2023-02-22T01:33:01;13.60;81.90
40538;DHT22;27925;41.874;12.526;2023-02-22T01:35:29;13.60;81.90
40538;DHT22;27925;41.874;12.526;2023-02-22T01:37:55;13.60;82.20
40538;DHT22;27925;41.874;12.526;2023-02-22T01:40:32;13.60;82.40
40538;DHT22;27925;41.874;12.526;2023-02-22T01:43:02;13.50;83.10
40538;DHT22;27925;41.874;12.526;2023-02-22T01:48:13;13.50;83.70
40538;DHT22;27925;41.874;12.526;2023-02-22T01:51:18;13.50;83.30
40538;DHT22;27925;41.874;12.526;2023-02-22T01:53:58;13.50;83.40
40538;DHT22;27925;41.874;12.526;2023-02-22T01:56:26;13.40;83.40
40538;DHT22;27925;41.874;12.526;2023-02-22T01:58:58;13.40;83.30
40538;DHT22;27925;41.874;12.526;2023-02-22T02:01:25;13.40;83.60
40538;DHT22;27925;41.874;12.526;2023-02-22T02:03:55;13.40;83.60
40538;DHT22;27925;41.874;12.526;2023-02-22T02:06:23;13.40;83.90
40538;DHT22;27925;41.874;12.526;2023-02-22T02:09:02;13.40;84.00
40538;DHT22;27925;41.874;12.526;2023-02-22T02:11:29;13.40;83.90
40538;DHT22;27925;41.874;12.526;2023-02-22T02:13:57;13.40;83.80
40538;DHT22;27925;41.874;12.526;2023-02-22T02:16:25;13.30;84.00
40538;DHT22;27925;41.874;12.526;2023-02-22T02:18:52;13.30;84.20
40538;DHT22;27925;41.874;12.526;2023-02-22T02:21:41;13.30;84.20
40538;DHT22;27925;41.874;12.526;2023-02-22T02:27:33;13.30;84.20
40538;DHT22;27925;41.874;12.526;2023-02-22T02:32:59;13.30;84.50
40538;DHT22;27925;41.874;12.526;2023-02-22T02:40:54;13.20;84.90
40538;DHT22;27925;41.874;12.526;2023-02-22T02:43:45;13.20;84.80
40538;DHT22;27925;41.874;12.526;2023-02-22T02:46:28;13.20;85.00
40538;DHT22;27925;41.874;12.526;2023-02-22T02:48:57;13.20;85.00
40538;DHT22;27925;41.874;12.526;2023-02-22T02:51:28;13.20;84.90
40538;DHT22;27925;41.874;12.526;2023-02-22T02:53:55;13.10;84.80
40538;DHT22;27925;41.874;12.526;2023-02-22T02:56:21;13.00;84.80
40538;DHT22;27925;41.874;12.526;2023-02-22T02:58:52;13.00;85.00
40538;DHT22;27925;41.874;12.526;2023-02-22T03:07:02;13.10;85.20
40538;DHT22;27925;41.874;12.526;2023-02-22T03:10:33;13.10;85.20
40538;DHT22;27925;41.874;12.526;2023-02-22T03:15:29;13.20;85.30
40538;DHT22;27925;41.874;12.526;2023-02-22T03:18:25;13.30;85.20
40538;DHT22;27925;41.874;12.526;2023-02-22T03:24:08;13.30;85.20
40538;DHT22;27925;41.874;12.526;2023-02-22T03:26:48;13.30;85.50
40538;DHT22;27925;41.874;12.526;2023-02-22T03:29:18;13.40;85.30
40538;DHT22;27925;41.874;12.526;2023-02-22T03:31:49;13.40;85.30
40538;DHT22;27925;41.874;12.526;2023-02-22T03:34:21;13.40;85.40
40538;DHT22;27925;41.874;12.526;2023-02-22T03:36:58;13.40;85.40
40538;DHT22;27925;41.874;12.526;2023-02-22T03:39:25;13.40;85.20
40538;DHT22;27925;41.874;12.526;2023-02-22T03:41:58;13.50;85.40
40538;DHT22;27925;41.874;12.526;2023-02-22T03:44:27;13.50;85.20
40538;DHT22;27925;41.874;12.526;2023-02-22T03:47:00;13.50;85.30
40538;DHT22;27925;41.874;12.526;2023-02-22T03:49:46;13.50;85.20
40538;DHT22;27925;41.874;12.526;2023-02-22T03:52:13;13.50;85.30
40538;DHT22;27925;41.874;12.526;2023-02-22T03:54:39;13.50;85.20
40538;DHT22;27925;41.874;12.526;2023-02-22T03:57:27;13.50;85.30
40538;DHT22;27925;41.874;12.526;2023-02-22T03:59:54;13.50;84.90
40538;DHT22;27925;41.874;12.526;2023-02-22T04:02:20;13.50;85.00
40538;DHT22;27925;41.874;12.526;2023-02-22T04:04:48;13.50;85.00
40538;DHT22;27925;41.874;12.526;2023-02-22T04:07:14;13.50;85.00
40538;DHT22;27925;41.874;12.526;2023-02-22T04:09:40;13.50;85.00
40538;DHT22;27925;41.874;12.526;2023-02-22T04:12:06;13.50;85.00
40538;DHT22;27925;41.874;12.526;2023-02-22T04:14:33;13.40;84.80
40538;DHT22;27925;41.874;12.526;2023-02-22T04:16:58;13.50;85.00
40538;DHT22;27925;41.874;12.526;2023-02-22T04:19:24;13.50;85.10
40538;DHT22;27925;41.874;12.526;2023-02-22T04:21:50;13.50;84.90
40538;DHT22;27925;41.874;12.526;2023-02-22T04:24:16;13.50;85.10
40538;DHT22;27925;41.874;12.526;2023-02-22T04:26:41;13.50;85.10
40538;DHT22;27925;41.874;12.526;2023-02-22T04:29:07;13.50;85.10
40538;DHT22;27925;41.874;12.526;2023-02-22T04:31:33;13.40;84.90
40538;DHT22;27925;41.874;12.526;2023-02-22T04:33:59;13.40;85.60
40538;DHT22;27925;41.874;12.526;2023-02-22T04:36:26;13.40;84.90
40538;DHT22;27925;41.874;12.526;2023-02-22T04:38:52;13.40;85.00
40538;DHT22;27925;41.874;12.526;2023-02-22T04:41:18;13.40;85.20
40538;DHT22;27925;41.874;12.526;2023-02-22T04:43:44;13.40;85.10
40538;DHT22;27925;41.874;12.526;2023-02-22T04:46:11;13.40;85.30
40538;DHT22;27925;41.874;12.526;2023-02-22T04:48:37;13.40;85.30
40538;DHT22;27925;41.874;12.526;2023-02-22T04:51:03;13.40;85.40
40538;DHT22;27925;41.874;12.526;2023-02-22T04:53:29;13.40;85.40
40538;DHT22;27925;41.874;12.526;2023-02-22T04:55:54;13.30;85.30
40538;DHT22;27925;41.874;12.526;2023-02-22T04:58:20;13.30;85.50
40538;DHT22;27925;41.874;12.526;2023-02-22T05:00:46;13.30;85.60
40538;DHT22;27925;41.874;12.526;2023-02-22T05:03:12;13.30;85.70
40538;DHT22;27925;41.874;12.526;2023-02-22T05:05:37;13.30;85.60
40538;DHT22;27925;41.874;12.526;2023-02-22T05:08:03;13.30;85.60
40538;DHT22;27925;41.874;12.526;2023-02-22T05:10:29;13.30;85.70
40538;DHT22;27925;41.874;12.526;2023-02-22T05:12:55;13.30;85.40
40538;DHT22;27925;41.874;12.526;2023-02-22T05:15:21;13.40;85.60
40538;DHT22;27925;41.874;12.526;2023-02-22T05:17:47;13.40;85.60
40538;DHT22;27925;41.874;12.526;2023-02-22T05:20:31;13.40;85.50
40538;DHT22;27925;41.874;12.526;2023-02-22T05:22:59;13.40;85.70
40538;DHT22;27925;41.874;12.526;2023-02-22T05:25:25;13.30;85.50
40538;DHT22;27925;41.874;12.526;2023-02-22T05:28:00;13.30;85.50
40538;DHT22;27925;41.874;12.526;2023-02-22T05:30:30;13.20;85.80
40538;DHT22;27925;41.874;12.526;2023-02-22T05:32:56;13.20;85.80
40538;DHT22;27925;41.874;12.526;2023-02-22T05:35:23;13.20;86.00
40538;DHT22;27925;41.874;12.526;2023-02-22T05:37:49;13.30;86.10
40538;DHT22;27925;41.874;12.526;2023-02-22T05:40:21;13.20;85.80
40538;DHT22;27925;41.874;12.526;2023-02-22T05:42:47;13.20;85.60
40538;DHT22;27925;41.874;12.526;2023-02-22T05:45:14;13.20;86.30
40538;DHT22;27925;41.874;12.526;2023-02-22T05:47:40;13.20;86.30
40538;DHT22;27925;41.874;12.526;2023-02-22T05:50:07;13.20;86.10
40538;DHT22;27925;41.874;12.526;2023-02-22T05:52:33;13.20;86.10
40538;DHT22;27925;41.874;12.526;2023-02-22T05:54:58;13.20;86.40
40538;DHT22;27925;41.874;12.526;2023-02-22T05:57:24;13.20;86.40
40538;DHT22;27925;41.874;12.526;2023-02-22T21:28:12;13.70;79.20
40538;DHT22;27925;41.874;12.526;2023-02-22T21:30:38;13.70;79.10
40538;DHT22;27925;41.874;12.526;2023-02-22T21:33:03;13.70;79.40
40538;DHT22;27925;41.874;12.526;2023-02-22T21:35:34;13.70;79.40
40538;DHT22;27925;41.874;12.526;2023-02-22T21:38:04;13.70;79.40
40538;DHT22;27925;41.874;12.526;2023-02-22T21:40:30;13.70;79.50
40538;DHT22;27925;41.874;12.526;2023-02-22T21:42:57;13.70;79.30
40538;DHT22;27925;41.874;12.526;2023-02-22T21:45:23;13.70;79.30
40538;DHT22;27925;41.874;12.526;2023-02-22T21:47:48;13.60;79.30
40538;DHT22;27925;41.874;12.526;2023-02-22T21:50:20;13.60;79.40
40538;DHT22;27925;41.874;12.526;2023-02-22T21:52:48;13.60;79.50
40538;DHT22;27925;41.874;12.526;2023-02-22T21:55:14;13.50;79.50
40538;DHT22;27925;41.874;12.526;2023-02-22T21:57:40;13.60;79.80
40538;DHT22;27925;41.874;12.526;2023-02-22T22:00:09;13.60;79.70
40538;DHT22;27925;41.874;12.526;2023-02-22T22:02:54;13.60;79.80
40538;DHT22;27925;41.874;12.526;2023-02-22T22:05:24;13.50;79.60
40538;DHT22;27925;41.874;12.526;2023-02-22T22:08:11;13.50;79.80
40538;DHT22;27925;41.874;12.526;2023-02-22T22:10:52;13.50;79.90
40538;DHT22;27925;41.874;12.526;2023-02-22T22:13:23;13.40;79.80
40538;DHT22;27925;41.874;12.526;2023-02-22T22:15:50;13.40;79.90
40538;DHT22;27925;41.874;12.526;2023-02-22T22:18:16;13.40;80.10
40538;DHT22;27925;41.874;12.526;2023-02-22T22:20:42;13.40;80.00
40538;DHT22;27925;41.874;12.526;2023-02-22T22:23:10;13.40;80.20
40538;DHT22;27925;41.874;12.526;2023-02-22T22:25:36;13.40;80.10
40538;DHT22;27925;41.874;12.526;2023-02-22T22:28:06;13.40;80.20
40538;DHT22;27925;41.874;12.526;2023-02-22T22:30:35;13.30;80.80
40538;DHT22;27925;41.874;12.526;2023-02-22T22:33:05;13.30;80.20
40538;DHT22;27925;41.874;12.526;2023-02-22T22:35:37;13.30;81.10
40538;DHT22;27925;41.874;12.526;2023-02-22T22:38:03;13.20;80.90
40538;DHT22;27925;41.874;12.526;2023-02-22T22:40:28;13.20;80.60
40538;DHT22;27925;41.874;12.526;2023-02-22T22:42:54;13.20;80.50
40538;DHT22;27925;41.874;12.526;2023-02-22T22:45:20;13.20;80.50
40538;DHT22;27925;41.874;12.526;2023-02-22T22:47:45;13.20;80.60
40538;DHT22;27925;41.874;12.526;2023-02-22T22:50:20;13.20;80.70
40538;DHT22;27925;41.874;12.526;2023-02-22T22:52:51;13.20;80.60
40538;DHT22;27925;41.874;12.526;2023-02-22T22:55:19;13.20;80.80
40538;DHT22;27925;41.874;12.526;2023-02-22T22:57:47;13.20;80.80
40538;DHT22;27925;41.874;12.526;2023-02-22T23:00:14;13.30;81.00
40538;DHT22;27925;41.874;12.526;2023-02-22T23:02:54;13.30;81.10
40538;DHT22;27925;41.874;12.526;2023-02-22T23:05:26;13.30;80.90
40538;DHT22;27925;41.874;12.526;2023-02-22T23:07:55;13.30;80.80
40538;DHT22;27925;41.874;12.526;2023-02-22T23:10:23;13.30;80.70
40538;DHT22;27925;41.874;12.526;2023-02-22T23:12:53;13.30;81.30
40538;DHT22;27925;41.874;12.526;2023-02-22T23:15:21;13.30;80.70
40538;DHT22;27925;41.874;12.526;2023-02-22T23:17:47;13.30;80.50
40538;DHT22;27925;41.874;12.526;2023-02-22T23:20:13;13.30;80.70
40538;DHT22;27925;41.874;12.526;2023-02-22T23:22:39;13.30;80.80
40538;DHT22;27925;41.874;12.526;2023-02-22T23:25:07;13.20;80.60
40538;DHT22;27925;41.874;12.526;2023-02-22T23:27:32;13.20;80.70
40538;DHT22;27925;41.874;12.526;2023-02-22T23:29:58;13.20;80.80
40538;DHT22;27925;41.874;12.526;2023-02-22T23:32:24;13.10;80.70
40538;DHT22;27925;41.874;12.526;2023-02-22T23:34:54;13.10;80.70
40538;DHT22;27925;41.874;12.526;2023-02-22T23:37:19;13.00;80.50
40538;DHT22;27925;41.874;12.526;2023-02-22T23:39:46;13.00;80.90
40538;DHT22;27925;41.874;12.526;2023-02-22T23:42:12;13.00;80.70
40538;DHT22;27925;41.874;12.526;2023-02-22T23:44:42;13.00;80.70
40538;DHT22;27925;41.874;12.526;2023-02-22T23:47:08;13.00;80.70
40538;DHT22;27925;41.874;12.526;2023-02-22T23:49:34;13.00;80.80
40538;DHT22;27925;41.874;12.526;2023-02-22T23:52:01;13.00;80.70
40538;DHT22;27925;41.874;12.526;2023-02-22T23:54:27;13.00;80.40
40538;DHT22;27925;41.874;12.526;2023-02-22T23:57:01;13.00;80.80
40538;DHT22;27925;41.874;12.526;2023-02-22T23:59:28;13.00;80.60
